Hauptseite
METAR-TAF:

METAR-TAF

Flughäfen :

Flughafen Piešťany

Piešťany, Slowakei

Breite: 48-37-30N, Länge: 017-49-43E, Höhe: 163 m

Beobachtung

Neuester Wetterbericht von vor 29 Minuten, um 21:00 UTC
Wind 11 kt aus Nord
Temperatur 3°C
Luftfeuchtigkeit 81%
Luftdruck 1018 hPa
Sichtweite 10 km oder mehr

METAR: LZPP 182100Z AUTO 36011KT 9999 OVC041/// 03/M00 Q1018

Zeit: 22:29 (21:29 UTC)

Prognose

Neuester Wetterbericht von vor 4 Stunden und 29 Minuten, um 17:00 UTC
Gültige Prognose vom 18 um 18 UTC bis 19 um 03 UTC
Wind 4 kt aus Nord
Sichtweite 10 km oder mehr
Durchbrochene Bewölkung in der Höhe von 4500 ft

TAF: LZPP 181700Z 1818/1903 01004KT 9999 BKN045

Wetterbeobachtungen und Prognosen von mehr als 4000 Flughäfen (METAR und TAF Bericht).

Die verfügbaren Stationen werden durch gelbe und rote Markierungen auf der Karte dargestellt.

Führen Sie die Maus auf sie, um den Namen der Station zu sehen.

Darauf klicken, um die Beobachtung von Wetterbeobachtungen und Prognosen zu sehen.

Um die Karte zu ändern : klicken Sie auf den grünen Tasten mit einem schwarzen Kreuz Zum Vergrößern, auf den grünen Button mit einem Gedankenstrich zu verkleinern, oder auf die grünen Pfeile für benachbarte Karten.


METAR-TAF: